sensor_id;sensor_type;location;lat;lon;timestamp;pressure;altitude;pressure_sealevel;temperature;humidity
5550;BME280;2798;42.716;23.256;2022-07-23T00:00:13;95001.75;;;23.80;55.11
5550;BME280;2798;42.716;23.256;2022-07-23T00:02:39;95002.03;;;23.92;54.99
5550;BME280;2798;42.716;23.256;2022-07-23T00:05:05;94991.78;;;23.76;55.57
5550;BME280;2798;42.716;23.256;2022-07-23T00:07:30;95013.00;;;23.74;55.52
5550;BME280;2798;42.716;23.256;2022-07-23T00:09:55;94999.97;;;23.66;55.76
5550;BME280;2798;42.716;23.256;2022-07-23T00:12:21;95005.06;;;23.67;56.43
5550;BME280;2798;42.716;23.256;2022-07-23T00:14:47;95004.59;;;23.64;56.32
5550;BME280;2798;42.716;23.256;2022-07-23T00:17:12;95007.91;;;23.51;56.72
5550;BME280;2798;42.716;23.256;2022-07-23T00:19:37;95008.13;;;23.34;57.04
5550;BME280;2798;42.716;23.256;2022-07-23T00:22:03;94999.28;;;23.05;57.86
5550;BME280;2798;42.716;23.256;2022-07-23T00:24:28;95013.56;;;23.02;57.98
5550;BME280;2798;42.716;23.256;2022-07-23T00:26:54;95002.53;;;23.07;58.57
5550;BME280;2798;42.716;23.256;2022-07-23T00:29:19;95004.72;;;22.88;57.66
5550;BME280;2798;42.716;23.256;2022-07-23T00:31:44;95005.44;;;22.82;57.34
5550;BME280;2798;42.716;23.256;2022-07-23T00:34:10;95005.06;;;22.70;57.30
5550;BME280;2798;42.716;23.256;2022-07-23T00:36:35;95008.16;;;22.74;56.65
5550;BME280;2798;42.716;23.256;2022-07-23T00:39:01;94995.84;;;22.74;57.02
5550;BME280;2798;42.716;23.256;2022-07-23T00:41:26;95015.13;;;22.81;57.27
5550;BME280;2798;42.716;23.256;2022-07-23T00:43:52;95010.88;;;22.95;56.59
5550;BME280;2798;42.716;23.256;2022-07-23T00:46:21;95007.63;;;23.08;56.90
5550;BME280;2798;42.716;23.256;2022-07-23T00:48:47;95014.84;;;23.06;56.37
5550;BME280;2798;42.716;23.256;2022-07-23T00:51:12;95001.00;;;23.13;56.46
5550;BME280;2798;42.716;23.256;2022-07-23T00:53:40;95000.81;;;22.99;57.39
5550;BME280;2798;42.716;23.256;2022-07-23T00:56:05;95003.06;;;23.02;57.73
5550;BME280;2798;42.716;23.256;2022-07-23T00:58:31;94982.56;;;22.76;58.05
5550;BME280;2798;42.716;23.256;2022-07-23T01:00:58;95011.88;;;22.79;58.19
5550;BME280;2798;42.716;23.256;2022-07-23T01:03:23;95003.00;;;22.80;58.15
5550;BME280;2798;42.716;23.256;2022-07-23T01:05:49;95010.88;;;22.80;57.89
5550;BME280;2798;42.716;23.256;2022-07-23T01:08:14;95003.72;;;22.74;58.05
5550;BME280;2798;42.716;23.256;2022-07-23T01:10:40;95001.38;;;22.79;58.34
5550;BME280;2798;42.716;23.256;2022-07-23T01:13:09;95010.31;;;22.85;58.14
5550;BME280;2798;42.716;23.256;2022-07-23T01:15:36;95004.19;;;22.78;58.32
5550;BME280;2798;42.716;23.256;2022-07-23T01:18:04;95004.38;;;22.76;58.17
5550;BME280;2798;42.716;23.256;2022-07-23T01:20:30;94992.06;;;22.62;58.16
5550;BME280;2798;42.716;23.256;2022-07-23T01:22:56;94996.66;;;22.59;57.95
5550;BME280;2798;42.716;23.256;2022-07-23T01:25:21;95008.31;;;22.57;58.16
5550;BME280;2798;42.716;23.256;2022-07-23T01:27:47;95002.38;;;22.63;58.17
5550;BME280;2798;42.716;23.256;2022-07-23T01:30:13;94998.63;;;22.57;58.14
5550;BME280;2798;42.716;23.256;2022-07-23T01:32:38;95003.59;;;22.52;58.93
5550;BME280;2798;42.716;23.256;2022-07-23T01:35:05;95005.94;;;22.47;58.98
5550;BME280;2798;42.716;23.256;2022-07-23T01:37:30;94977.34;;;22.37;58.95
5550;BME280;2798;42.716;23.256;2022-07-23T01:39:56;94999.13;;;22.38;58.93
5550;BME280;2798;42.716;23.256;2022-07-23T01:42:21;94999.78;;;22.40;59.66
5550;BME280;2798;42.716;23.256;2022-07-23T01:44:47;94987.03;;;22.21;60.27
5550;BME280;2798;42.716;23.256;2022-07-23T01:47:12;94994.16;;;22.28;60.03
5550;BME280;2798;42.716;23.256;2022-07-23T01:49:38;94997.16;;;22.25;60.59
5550;BME280;2798;42.716;23.256;2022-07-23T01:52:03;94990.31;;;22.15;60.45
5550;BME280;2798;42.716;23.256;2022-07-23T01:54:33;94995.69;;;22.22;60.04
5550;BME280;2798;42.716;23.256;2022-07-23T01:56:59;95001.97;;;22.13;60.49
5550;BME280;2798;42.716;23.256;2022-07-23T01:59:26;94999.38;;;22.13;60.67
5550;BME280;2798;42.716;23.256;2022-07-23T02:01:52;94966.59;;;21.93;61.19
5550;BME280;2798;42.716;23.256;2022-07-23T02:04:19;94999.59;;;22.26;60.72
5550;BME280;2798;42.716;23.256;2022-07-23T02:06:44;95005.69;;;22.18;61.14
5550;BME280;2798;42.716;23.256;2022-07-23T02:09:10;95001.16;;;22.12;61.07
5550;BME280;2798;42.716;23.256;2022-07-23T02:11:36;95007.75;;;22.08;61.28
5550;BME280;2798;42.716;23.256;2022-07-23T02:14:01;94995.47;;;22.08;61.03
5550;BME280;2798;42.716;23.256;2022-07-23T02:16:27;94975.16;;;21.87;60.87
5550;BME280;2798;42.716;23.256;2022-07-23T02:18:52;95004.91;;;21.94;61.63
5550;BME280;2798;42.716;23.256;2022-07-23T02:21:18;95000.72;;;21.85;61.83
5550;BME280;2798;42.716;23.256;2022-07-23T02:23:43;94998.81;;;21.79;62.17
5550;BME280;2798;42.716;23.256;2022-07-23T02:26:09;94995.50;;;21.77;62.47
5550;BME280;2798;42.716;23.256;2022-07-23T02:28:34;94999.41;;;21.89;61.99
5550;BME280;2798;42.716;23.256;2022-07-23T02:31:00;95007.81;;;22.00;61.51
5550;BME280;2798;42.716;23.256;2022-07-23T02:33:25;94999.66;;;21.94;61.42
5550;BME280;2798;42.716;23.256;2022-07-23T02:35:50;94997.22;;;21.69;62.26
5550;BME280;2798;42.716;23.256;2022-07-23T02:38:16;95009.94;;;21.72;62.71
5550;BME280;2798;42.716;23.256;2022-07-23T02:40:41;95005.53;;;21.73;62.11
5550;BME280;2798;42.716;23.256;2022-07-23T02:43:07;95004.03;;;21.79;62.19
5550;BME280;2798;42.716;23.256;2022-07-23T02:45:32;95007.56;;;21.63;62.60
5550;BME280;2798;42.716;23.256;2022-07-23T02:47:58;95009.31;;;21.70;62.40
5550;BME280;2798;42.716;23.256;2022-07-23T02:50:23;95008.25;;;21.56;63.17
5550;BME280;2798;42.716;23.256;2022-07-23T02:52:50;94993.28;;;21.42;62.57
5550;BME280;2798;42.716;23.256;2022-07-23T02:55:15;95016.81;;;21.50;62.70
5550;BME280;2798;42.716;23.256;2022-07-23T02:57:41;95017.91;;;21.56;62.63
5550;BME280;2798;42.716;23.256;2022-07-23T03:00:07;95022.34;;;21.55;63.00
5550;BME280;2798;42.716;23.256;2022-07-23T03:02:33;95027.00;;;21.36;62.73
5550;BME280;2798;42.716;23.256;2022-07-23T03:04:58;95028.88;;;21.28;62.85
5550;BME280;2798;42.716;23.256;2022-07-23T03:07:24;95038.13;;;20.98;63.26
5550;BME280;2798;42.716;23.256;2022-07-23T03:09:49;95032.56;;;20.85;63.52
5550;BME280;2798;42.716;23.256;2022-07-23T03:12:15;95033.59;;;20.75;63.75
5550;BME280;2798;42.716;23.256;2022-07-23T03:14:41;95043.09;;;20.60;64.31
5550;BME280;2798;42.716;23.256;2022-07-23T03:17:06;95037.56;;;20.55;64.62
5550;BME280;2798;42.716;23.256;2022-07-23T03:19:32;95047.34;;;20.61;64.17
5550;BME280;2798;42.716;23.256;2022-07-23T03:21:58;95043.78;;;20.45;65.08
5550;BME280;2798;42.716;23.256;2022-07-23T03:24:23;95047.69;;;20.58;64.97
5550;BME280;2798;42.716;23.256;2022-07-23T03:27:08;95043.94;;;20.52;64.63
5550;BME280;2798;42.716;23.256;2022-07-23T03:29:34;95048.50;;;20.50;65.98
5550;BME280;2798;42.716;23.256;2022-07-23T03:31:59;95053.91;;;20.48;65.67
5550;BME280;2798;42.716;23.256;2022-07-23T03:34:25;95057.34;;;20.49;66.16
5550;BME280;2798;42.716;23.256;2022-07-23T03:36:50;95047.03;;;20.56;65.97
5550;BME280;2798;42.716;23.256;2022-07-23T03:39:15;95056.69;;;20.55;66.45
5550;BME280;2798;42.716;23.256;2022-07-23T03:41:41;95056.63;;;20.63;66.26
5550;BME280;2798;42.716;23.256;2022-07-23T03:44:06;95048.78;;;20.80;65.70
5550;BME280;2798;42.716;23.256;2022-07-23T03:46:32;95050.53;;;20.88;65.24
5550;BME280;2798;42.716;23.256;2022-07-23T03:48:57;95053.16;;;21.05;64.69
5550;BME280;2798;42.716;23.256;2022-07-23T03:51:23;95053.31;;;21.11;64.54
5550;BME280;2798;42.716;23.256;2022-07-23T03:53:48;95060.47;;;21.18;64.17
5550;BME280;2798;42.716;23.256;2022-07-23T03:56:14;95061.59;;;21.23;63.95
5550;BME280;2798;42.716;23.256;2022-07-23T03:58:39;95054.06;;;21.20;64.24
5550;BME280;2798;42.716;23.256;2022-07-23T04:01:05;95053.34;;;21.35;63.54
5550;BME280;2798;42.716;23.256;2022-07-23T04:03:30;95036.03;;;21.34;63.26
5550;BME280;2798;42.716;23.256;2022-07-23T04:05:56;95016.94;;;21.17;62.77
5550;BME280;2798;42.716;23.256;2022-07-23T04:08:21;95055.25;;;21.49;62.96
5550;BME280;2798;42.716;23.256;2022-07-23T04:10:47;95056.88;;;21.51;63.10
5550;BME280;2798;42.716;23.256;2022-07-23T04:13:12;95055.72;;;21.53;63.03
5550;BME280;2798;42.716;23.256;2022-07-23T04:15:38;95052.91;;;21.63;62.99
5550;BME280;2798;42.716;23.256;2022-07-23T04:18:03;95061.56;;;21.64;62.81
5550;BME280;2798;42.716;23.256;2022-07-23T04:20:29;95059.47;;;21.59;62.72
5550;BME280;2798;42.716;23.256;2022-07-23T04:22:54;95064.34;;;21.62;62.97
5550;BME280;2798;42.716;23.256;2022-07-23T04:25:20;95063.97;;;21.42;63.08
5550;BME280;2798;42.716;23.256;2022-07-23T04:27:45;95065.38;;;21.21;63.37
5550;BME280;2798;42.716;23.256;2022-07-23T04:30:11;95064.53;;;21.20;63.59
5550;BME280;2798;42.716;23.256;2022-07-23T04:32:36;95055.66;;;21.30;63.31
5550;BME280;2798;42.716;23.256;2022-07-23T04:35:02;95041.75;;;21.38;63.32
5550;BME280;2798;42.716;23.256;2022-07-23T04:37:27;95058.66;;;21.58;63.17
5550;BME280;2798;42.716;23.256;2022-07-23T04:39:53;95077.22;;;21.72;63.11
5550;BME280;2798;42.716;23.256;2022-07-23T04:42:18;95055.56;;;21.23;63.74
5550;BME280;2798;42.716;23.256;2022-07-23T04:44:44;95070.28;;;21.16;64.51
5550;BME280;2798;42.716;23.256;2022-07-23T04:47:09;95073.69;;;21.24;64.80
5550;BME280;2798;42.716;23.256;2022-07-23T04:49:35;95070.31;;;21.47;63.91
5550;BME280;2798;42.716;23.256;2022-07-23T04:52:01;95058.66;;;21.58;63.67
5550;BME280;2798;42.716;23.256;2022-07-23T04:54:27;95082.38;;;21.97;62.92
5550;BME280;2798;42.716;23.256;2022-07-23T04:56:52;95077.41;;;22.02;62.11
5550;BME280;2798;42.716;23.256;2022-07-23T04:59:18;95066.97;;;22.17;61.91
5550;BME280;2798;42.716;23.256;2022-07-23T05:01:43;95074.91;;;22.32;61.60
5550;BME280;2798;42.716;23.256;2022-07-23T05:04:09;95072.47;;;22.46;61.30
5550;BME280;2798;42.716;23.256;2022-07-23T05:06:34;95072.88;;;22.58;60.70
5550;BME280;2798;42.716;23.256;2022-07-23T05:08:59;95077.06;;;22.67;61.14
5550;BME280;2798;42.716;23.256;2022-07-23T05:11:25;95077.38;;;22.72;60.55
5550;BME280;2798;42.716;23.256;2022-07-23T05:13:50;95078.56;;;22.85;59.63
5550;BME280;2798;42.716;23.256;2022-07-23T05:16:16;95070.69;;;22.85;59.38
5550;BME280;2798;42.716;23.256;2022-07-23T05:18:42;95075.94;;;23.00;58.90
5550;BME280;2798;42.716;23.256;2022-07-23T05:21:07;95082.91;;;23.08;58.77
5550;BME280;2798;42.716;23.256;2022-07-23T05:23:33;95076.75;;;23.16;58.93
5550;BME280;2798;42.716;23.256;2022-07-23T05:25:59;95079.94;;;23.26;58.80
5550;BME280;2798;42.716;23.256;2022-07-23T05:28:24;95079.38;;;23.31;58.28
5550;BME280;2798;42.716;23.256;2022-07-23T05:30:50;95081.91;;;23.39;58.59
5550;BME280;2798;42.716;23.256;2022-07-23T05:33:18;95085.91;;;23.50;59.06
5550;BME280;2798;42.716;23.256;2022-07-23T05:35:44;95085.63;;;23.60;58.46
5550;BME280;2798;42.716;23.256;2022-07-23T05:38:10;95084.88;;;23.66;58.85
5550;BME280;2798;42.716;23.256;2022-07-23T05:40:35;95088.91;;;23.84;58.61
5550;BME280;2798;42.716;23.256;2022-07-23T05:43:01;95087.53;;;23.88;58.46
5550;BME280;2798;42.716;23.256;2022-07-23T05:45:26;95083.16;;;23.95;58.07
5550;BME280;2798;42.716;23.256;2022-07-23T05:47:52;95087.31;;;24.05;57.93
5550;BME280;2798;42.716;23.256;2022-07-23T05:50:17;95083.47;;;24.07;57.62
5550;BME280;2798;42.716;23.256;2022-07-23T05:52:43;95085.63;;;24.19;56.66
5550;BME280;2798;42.716;23.256;2022-07-23T05:55:10;95087.13;;;24.28;55.43
5550;BME280;2798;42.716;23.256;2022-07-23T05:57:37;95085.41;;;24.42;54.90
5550;BME280;2798;42.716;23.256;2022-07-23T06:00:05;95076.69;;;24.35;54.34
5550;BME280;2798;42.716;23.256;2022-07-23T06:02:31;95081.38;;;24.40;54.80
5550;BME280;2798;42.716;23.256;2022-07-23T06:04:56;95071.28;;;24.43;54.45
5550;BME280;2798;42.716;23.256;2022-07-23T06:07:21;95081.69;;;24.59;54.71
5550;BME280;2798;42.716;23.256;2022-07-23T06:09:47;95075.50;;;24.66;53.29
5550;BME280;2798;42.716;23.256;2022-07-23T06:12:15;95082.69;;;24.79;53.71
5550;BME280;2798;42.716;23.256;2022-07-23T06:14:40;95068.50;;;24.80;52.55
5550;BME280;2798;42.716;23.256;2022-07-23T06:17:06;95086.06;;;24.95;52.77
5550;BME280;2798;42.716;23.256;2022-07-23T06:19:31;95086.09;;;25.02;51.83
5550;BME280;2798;42.716;23.256;2022-07-23T06:21:56;95080.84;;;25.02;51.93
5550;BME280;2798;42.716;23.256;2022-07-23T06:24:22;95075.97;;;25.05;51.66
5550;BME280;2798;42.716;23.256;2022-07-23T06:26:47;95072.78;;;25.17;51.82
5550;BME280;2798;42.716;23.256;2022-07-23T06:29:13;95079.47;;;25.13;52.21
5550;BME280;2798;42.716;23.256;2022-07-23T06:31:38;95062.03;;;25.12;51.65
5550;BME280;2798;42.716;23.256;2022-07-23T06:34:04;95080.63;;;25.39;50.91
5550;BME280;2798;42.716;23.256;2022-07-23T06:36:29;95079.56;;;25.33;51.13
5550;BME280;2798;42.716;23.256;2022-07-23T06:38:55;95082.66;;;25.43;50.96
5550;BME280;2798;42.716;23.256;2022-07-23T06:41:20;95076.44;;;25.16;51.27
5550;BME280;2798;42.716;23.256;2022-07-23T06:43:47;95072.94;;;25.09;51.14
5550;BME280;2798;42.716;23.256;2022-07-23T06:46:13;95080.34;;;25.27;51.04
5550;BME280;2798;42.716;23.256;2022-07-23T06:48:38;95078.00;;;25.46;50.31
5550;BME280;2798;42.716;23.256;2022-07-23T06:51:04;95068.94;;;25.55;50.51
5550;BME280;2798;42.716;23.256;2022-07-23T06:53:29;95077.13;;;25.74;49.96
5550;BME280;2798;42.716;23.256;2022-07-23T06:55:55;95074.50;;;25.80;49.67
5550;BME280;2798;42.716;23.256;2022-07-23T06:58:20;95061.13;;;25.96;49.43
5550;BME280;2798;42.716;23.256;2022-07-23T07:00:46;95057.94;;;26.00;49.09
5550;BME280;2798;42.716;23.256;2022-07-23T07:03:11;95066.06;;;26.19;48.81
5550;BME280;2798;42.716;23.256;2022-07-23T07:05:37;95070.16;;;26.35;48.14
5550;BME280;2798;42.716;23.256;2022-07-23T07:08:02;95066.09;;;26.39;47.95
5550;BME280;2798;42.716;23.256;2022-07-23T07:10:28;95061.84;;;26.52;48.22
5550;BME280;2798;42.716;23.256;2022-07-23T07:12:53;95057.75;;;26.49;48.01
5550;BME280;2798;42.716;23.256;2022-07-23T07:15:19;95055.53;;;26.60;47.97
5550;BME280;2798;42.716;23.256;2022-07-23T07:17:44;95059.78;;;26.74;47.99
5550;BME280;2798;42.716;23.256;2022-07-23T07:20:10;95046.19;;;26.71;47.37
5550;BME280;2798;42.716;23.256;2022-07-23T07:22:36;95049.00;;;26.83;47.70
5550;BME280;2798;42.716;23.256;2022-07-23T07:25:02;95058.72;;;27.09;47.43
5550;BME280;2798;42.716;23.256;2022-07-23T07:27:27;95057.91;;;27.15;46.67
5550;BME280;2798;42.716;23.256;2022-07-23T07:29:53;95053.97;;;27.32;46.16
5550;BME280;2798;42.716;23.256;2022-07-23T07:32:18;95049.06;;;27.42;46.05
5550;BME280;2798;42.716;23.256;2022-07-23T07:34:43;95057.56;;;27.51;45.52
5550;BME280;2798;42.716;23.256;2022-07-23T07:37:09;95047.59;;;27.53;45.13
5550;BME280;2798;42.716;23.256;2022-07-23T07:39:34;95055.25;;;27.68;44.83
5550;BME280;2798;42.716;23.256;2022-07-23T07:42:00;95052.63;;;27.68;44.73
5550;BME280;2798;42.716;23.256;2022-07-23T07:44:25;95042.81;;;27.82;44.44
5550;BME280;2798;42.716;23.256;2022-07-23T07:46:50;95050.44;;;27.97;44.26
5550;BME280;2798;42.716;23.256;2022-07-23T07:49:16;95045.09;;;28.04;43.86
5550;BME280;2798;42.716;23.256;2022-07-23T07:51:44;95039.72;;;28.18;43.56
5550;BME280;2798;42.716;23.256;2022-07-23T07:54:10;95032.38;;;28.20;43.04
5550;BME280;2798;42.716;23.256;2022-07-23T07:56:35;95045.34;;;28.28;42.61
5550;BME280;2798;42.716;23.256;2022-07-23T07:59:01;95027.03;;;28.26;42.36
5550;BME280;2798;42.716;23.256;2022-07-23T08:01:26;95046.75;;;28.31;42.89
5550;BME280;2798;42.716;23.256;2022-07-23T08:03:51;95038.44;;;28.27;43.10
5550;BME280;2798;42.716;23.256;2022-07-23T08:06:17;95032.53;;;28.25;42.79
5550;BME280;2798;42.716;23.256;2022-07-23T08:08:42;95038.50;;;28.46;42.65
5550;BME280;2798;42.716;23.256;2022-07-23T08:11:08;95044.88;;;28.63;42.12
5550;BME280;2798;42.716;23.256;2022-07-23T08:13:33;95042.66;;;28.60;41.92
5550;BME280;2798;42.716;23.256;2022-07-23T08:15:59;95039.50;;;28.70;41.58
5550;BME280;2798;42.716;23.256;2022-07-23T08:18:24;95041.22;;;28.83;41.26
5550;BME280;2798;42.716;23.256;2022-07-23T08:20:50;95014.50;;;28.66;41.22
5550;BME280;2798;42.716;23.256;2022-07-23T08:23:15;95035.44;;;28.93;41.22
5550;BME280;2798;42.716;23.256;2022-07-23T08:25:45;95029.88;;;29.02;41.16
5550;BME280;2798;42.716;23.256;2022-07-23T08:28:12;95037.13;;;29.25;41.09
5550;BME280;2798;42.716;23.256;2022-07-23T08:30:40;95031.63;;;29.27;40.42
5550;BME280;2798;42.716;23.256;2022-07-23T08:33:08;95031.31;;;29.35;40.29
5550;BME280;2798;42.716;23.256;2022-07-23T08:35:47;95036.53;;;29.42;40.97
5550;BME280;2798;42.716;23.256;2022-07-23T08:38:15;95038.38;;;29.60;39.73
5550;BME280;2798;42.716;23.256;2022-07-23T08:40:46;95038.16;;;29.61;39.65
5550;BME280;2798;42.716;23.256;2022-07-23T08:43:15;95032.41;;;29.65;39.34
5550;BME280;2798;42.716;23.256;2022-07-23T08:45:43;95028.13;;;29.64;39.48
5550;BME280;2798;42.716;23.256;2022-07-23T08:48:12;95026.31;;;29.76;39.71
5550;BME280;2798;42.716;23.256;2022-07-23T08:50:45;95025.75;;;29.74;39.86
5550;BME280;2798;42.716;23.256;2022-07-23T08:53:11;95020.94;;;29.83;39.48
5550;BME280;2798;42.716;23.256;2022-07-23T08:55:37;95025.97;;;30.03;39.39
5550;BME280;2798;42.716;23.256;2022-07-23T08:58:03;95017.22;;;30.15;38.65
5550;BME280;2798;42.716;23.256;2022-07-23T09:00:29;95015.63;;;30.26;38.53
5550;BME280;2798;42.716;23.256;2022-07-23T09:02:55;95015.06;;;30.23;38.27
5550;BME280;2798;42.716;23.256;2022-07-23T09:05:20;95018.75;;;30.34;38.60
5550;BME280;2798;42.716;23.256;2022-07-23T09:18:35;95020.91;;;31.21;35.94
5550;BME280;2798;42.716;23.256;2022-07-23T09:21:34;95014.28;;;31.36;36.07
5550;BME280;2798;42.716;23.256;2022-07-23T09:24:03;95018.16;;;31.57;35.10
5550;BME280;2798;42.716;23.256;2022-07-23T09:26:42;95019.16;;;31.68;34.80
5550;BME280;2798;42.716;23.256;2022-07-23T09:29:22;95001.34;;;31.69;34.43
5550;BME280;2798;42.716;23.256;2022-07-23T09:31:49;95011.69;;;31.82;33.92
5550;BME280;2798;42.716;23.256;2022-07-23T09:34:31;95000.59;;;31.86;34.05
5550;BME280;2798;42.716;23.256;2022-07-23T09:37:14;94998.09;;;31.96;33.84
5550;BME280;2798;42.716;23.256;2022-07-23T09:39:42;94995.94;;;32.10;31.70
5550;BME280;2798;42.716;23.256;2022-07-23T09:44:44;94995.94;;;32.10;33.01
5550;BME280;2798;42.716;23.256;2022-07-23T09:47:10;94980.94;;;32.04;30.67
5550;BME280;2798;42.716;23.256;2022-07-23T09:49:36;94994.81;;;32.06;30.91
5550;BME280;2798;42.716;23.256;2022-07-23T09:52:02;94992.88;;;32.18;30.76
5550;BME280;2798;42.716;23.256;2022-07-23T09:54:36;94992.94;;;32.41;30.79
5550;BME280;2798;42.716;23.256;2022-07-23T09:59:37;94996.66;;;32.74;29.96
5550;BME280;2798;42.716;23.256;2022-07-23T10:02:04;94987.78;;;32.91;29.85
5550;BME280;2798;42.716;23.256;2022-07-23T10:04:31;94973.22;;;32.99;29.24
5550;BME280;2798;42.716;23.256;2022-07-23T10:07:02;94964.00;;;33.07;28.54
5550;BME280;2798;42.716;23.256;2022-07-23T10:09:39;94975.53;;;33.12;28.11
5550;BME280;2798;42.716;23.256;2022-07-23T10:12:13;94980.13;;;33.17;28.31
5550;BME280;2798;42.716;23.256;2022-07-23T10:14:57;94977.44;;;33.39;28.25
5550;BME280;2798;42.716;23.256;2022-07-23T10:17:23;94968.03;;;33.32;27.84
5550;BME280;2798;42.716;23.256;2022-07-23T10:19:49;94953.44;;;33.39;27.07
5550;BME280;2798;42.716;23.256;2022-07-23T10:22:22;94972.56;;;33.59;25.27
5550;BME280;2798;42.716;23.256;2022-07-23T10:33:18;94968.94;;;34.31;24.13
5550;BME280;2798;42.716;23.256;2022-07-23T10:41:13;94955.97;;;34.55;23.92
5550;BME280;2798;42.716;23.256;2022-07-23T10:43:39;94947.22;;;34.65;23.64
5550;BME280;2798;42.716;23.256;2022-07-23T10:46:23;94954.81;;;34.79;24.05
5550;BME280;2798;42.716;23.256;2022-07-23T10:57:12;94946.28;;;34.92;23.82
5550;BME280;2798;42.716;23.256;2022-07-23T11:02:31;94929.53;;;35.12;23.49
5550;BME280;2798;42.716;23.256;2022-07-23T11:07:29;94920.50;;;35.24;22.46
5550;BME280;2798;42.716;23.256;2022-07-23T11:09:55;94928.53;;;35.29;21.10
5550;BME280;2798;42.716;23.256;2022-07-23T11:17:24;94910.47;;;34.88;21.08
5550;BME280;2798;42.716;23.256;2022-07-23T11:22:55;94907.59;;;35.10;21.92
5550;BME280;2798;42.716;23.256;2022-07-23T11:27:47;94903.66;;;35.44;21.16
5550;BME280;2798;42.716;23.256;2022-07-23T11:35:41;94905.28;;;35.40;20.82
5550;BME280;2798;42.716;23.256;2022-07-23T11:38:18;94899.09;;;35.24;20.74
5550;BME280;2798;42.716;23.256;2022-07-23T11:40:47;94899.38;;;35.22;20.72
5550;BME280;2798;42.716;23.256;2022-07-23T11:43:13;94895.81;;;35.06;20.40
5550;BME280;2798;42.716;23.256;2022-07-23T11:45:46;94888.59;;;35.12;18.96
5550;BME280;2798;42.716;23.256;2022-07-23T11:48:18;94882.19;;;35.18;18.84
5550;BME280;2798;42.716;23.256;2022-07-23T11:50:43;94885.19;;;35.27;19.32
5550;BME280;2798;42.716;23.256;2022-07-23T11:53:09;94875.84;;;35.40;18.89
5550;BME280;2798;42.716;23.256;2022-07-23T11:55:34;94876.91;;;35.60;19.23
5550;BME280;2798;42.716;23.256;2022-07-23T11:58:00;94875.06;;;35.81;18.31
5550;BME280;2798;42.716;23.256;2022-07-23T12:00:28;94885.22;;;36.10;17.72
5550;BME280;2798;42.716;23.256;2022-07-23T12:02:59;94892.97;;;35.60;15.83
5550;BME280;2798;42.716;23.256;2022-07-23T12:05:29;94879.31;;;35.41;16.89
5550;BME280;2798;42.716;23.256;2022-07-23T12:07:56;94873.97;;;35.46;16.20
5550;BME280;2798;42.716;23.256;2022-07-23T12:10:37;94870.78;;;35.54;17.24
5550;BME280;2798;42.716;23.256;2022-07-23T12:13:05;94870.78;;;35.75;16.46
5550;BME280;2798;42.716;23.256;2022-07-23T12:15:42;94866.22;;;35.86;17.03
5550;BME280;2798;42.716;23.256;2022-07-23T12:18:11;94865.41;;;36.06;15.70
5550;BME280;2798;42.716;23.256;2022-07-23T12:20:42;94867.50;;;36.20;16.07
5550;BME280;2798;42.716;23.256;2022-07-23T12:23:10;94860.50;;;36.45;15.81
5550;BME280;2798;42.716;23.256;2022-07-23T12:25:37;94857.50;;;36.62;15.73
5550;BME280;2798;42.716;23.256;2022-07-23T12:30:42;94857.00;;;37.10;14.86
5550;BME280;2798;42.716;23.256;2022-07-23T12:33:14;94859.31;;;37.28;16.13
5550;BME280;2798;42.716;23.256;2022-07-23T12:35:46;94851.22;;;37.38;14.26
5550;BME280;2798;42.716;23.256;2022-07-23T12:38:17;94836.56;;;37.15;14.49
5550;BME280;2798;42.716;23.256;2022-07-23T12:43:12;94844.41;;;37.11;15.86
5550;BME280;2798;42.716;23.256;2022-07-23T12:45:52;94847.00;;;37.27;16.18
5550;BME280;2798;42.716;23.256;2022-07-23T12:48:24;94844.78;;;37.34;15.19
5550;BME280;2798;42.716;23.256;2022-07-23T12:53:25;94838.59;;;37.39;15.42
5550;BME280;2798;42.716;23.256;2022-07-23T12:55:59;94829.19;;;37.41;15.89
5550;BME280;2798;42.716;23.256;2022-07-23T12:58:25;94825.75;;;37.65;15.70
5550;BME280;2798;42.716;23.256;2022-07-23T13:03:32;94828.09;;;37.77;14.79
5550;BME280;2798;42.716;23.256;2022-07-23T13:05:59;94834.81;;;37.75;15.85
5550;BME280;2798;42.716;23.256;2022-07-23T13:08:27;94823.94;;;37.90;14.72
5550;BME280;2798;42.716;23.256;2022-07-23T13:10:53;94830.66;;;38.17;15.23
5550;BME280;2798;42.716;23.256;2022-07-23T13:13:23;94820.56;;;38.33;14.68
5550;BME280;2798;42.716;23.256;2022-07-23T13:15:50;94802.38;;;38.25;13.72
5550;BME280;2798;42.716;23.256;2022-07-23T13:18:17;94824.47;;;38.17;13.71
5550;BME280;2798;42.716;23.256;2022-07-23T13:20:44;94819.75;;;37.79;12.38
5550;BME280;2798;42.716;23.256;2022-07-23T13:23:10;94833.06;;;37.89;13.03
5550;BME280;2798;42.716;23.256;2022-07-23T13:25:35;94824.31;;;38.08;13.08
5550;BME280;2798;42.716;23.256;2022-07-23T13:28:01;94823.00;;;38.30;13.03
5550;BME280;2798;42.716;23.256;2022-07-23T13:30:26;94815.84;;;38.44;12.94
5550;BME280;2798;42.716;23.256;2022-07-23T13:32:52;94823.50;;;38.56;12.58
5550;BME280;2798;42.716;23.256;2022-07-23T13:35:17;94815.56;;;38.46;12.98
5550;BME280;2798;42.716;23.256;2022-07-23T13:37:43;94813.34;;;38.29;13.01
5550;BME280;2798;42.716;23.256;2022-07-23T13:40:09;94811.97;;;38.31;13.50
5550;BME280;2798;42.716;23.256;2022-07-23T13:42:35;94795.44;;;38.43;13.44
5550;BME280;2798;42.716;23.256;2022-07-23T13:45:01;94783.66;;;38.58;13.11
5550;BME280;2798;42.716;23.256;2022-07-23T13:47:26;94810.75;;;38.67;13.77
5550;BME280;2798;42.716;23.256;2022-07-23T13:49:51;94788.06;;;38.74;13.94
5550;BME280;2798;42.716;23.256;2022-07-23T13:52:17;94802.69;;;39.06;13.65
5550;BME280;2798;42.716;23.256;2022-07-23T13:54:42;94796.94;;;39.32;13.77
5550;BME280;2798;42.716;23.256;2022-07-23T13:57:08;94805.38;;;39.25;13.12
5550;BME280;2798;42.716;23.256;2022-07-23T13:59:35;94796.66;;;38.95;13.35
5550;BME280;2798;42.716;23.256;2022-07-23T14:02:02;94800.22;;;39.10;13.30
5550;BME280;2798;42.716;23.256;2022-07-23T14:04:28;94788.00;;;39.17;13.58
5550;BME280;2798;42.716;23.256;2022-07-23T14:06:53;94790.28;;;39.43;13.38
5550;BME280;2798;42.716;23.256;2022-07-23T14:09:19;94781.78;;;39.36;13.37
5550;BME280;2798;42.716;23.256;2022-07-23T14:11:44;94793.16;;;39.47;13.25
5550;BME280;2798;42.716;23.256;2022-07-23T14:14:10;94793.97;;;39.48;13.29
5550;BME280;2798;42.716;23.256;2022-07-23T14:16:35;94795.84;;;39.47;13.34